TimeCST,TemperatureF,Dew PointF,Humidity,Sea Level PressureIn,VisibilityMPH,Wind Direction,Wind SpeedMPH,Gust SpeedMPH,PrecipitationIn,Events,Conditions,WindDirDegrees,DateUTC
12:08 AM,42.1,12.0,29,-9999,-9999.0,West,10.4,-,N/A,,Unknown,260,2014-01-14 06:08:00
12:28 AM,39.0,11.1,32,-9999,-9999.0,West,10.4,-,N/A,,Unknown,260,2014-01-14 06:28:00
12:48 AM,37.0,11.1,34,-9999,-9999.0,West,9.2,-,N/A,,Unknown,270,2014-01-14 06:48:00
1:08 AM,37.0,12.0,36,-9999,-9999.0,West,8.1,-,N/A,,Unknown,270,2014-01-14 07:08:00
1:28 AM,36.0,11.1,36,-9999,-9999.0,West,8.1,-,N/A,,Unknown,270,2014-01-14 07:28:00
1:48 AM,36.0,11.1,36,-9999,-9999.0,West,10.4,-,N/A,,Unknown,280,2014-01-14 07:48:00
2:08 AM,36.0,12.0,37,-9999,-9999.0,WNW,10.4,-,N/A,,Unknown,300,2014-01-14 08:08:00
2:28 AM,35.1,13.1,40,-9999,-9999.0,West,9.2,-,N/A,,Unknown,280,2014-01-14 08:28:00
2:48 AM,35.1,12.0,39,-9999,-9999.0,NW,9.2,-,N/A,,Unknown,310,2014-01-14 08:48:00
3:08 AM,39.0,14.0,36,-9999,-9999.0,NW,8.1,-,N/A,,Unknown,320,2014-01-14 09:08:00
3:28 AM,39.0,14.0,36,-9999,-9999.0,NW,6.9,-,N/A,,Unknown,320,2014-01-14 09:28:00
3:48 AM,39.9,13.1,33,-9999,-9999.0,North,16.1,-,N/A,,Unknown,350,2014-01-14 09:48:00
4:08 AM,39.9,15.1,36,-9999,-9999.0,North,12.7,-,N/A,,Unknown,350,2014-01-14 10:08:00
4:28 AM,39.9,15.1,36,-9999,-9999.0,North,9.2,-,N/A,,Unknown,350,2014-01-14 10:28:00
4:48 AM,-9999,-9999,N/A,-9999,-9999.0,North,-9999.0,-,N/A,,Unknown,0,2014-01-14 10:48:00
5:08 AM,43.0,18.1,37,-9999,-9999.0,NNW,15.0,-,N/A,,Unknown,340,2014-01-14 11:08:00
5:28 AM,46.0,20.1,36,-9999,-9999.0,NNW,13.8,-,N/A,,Unknown,340,2014-01-14 11:28:00
5:48 AM,46.0,20.1,36,-9999,-9999.0,North,12.7,-,N/A,,Unknown,360,2014-01-14 11:48:00
6:08 AM,45.0,20.1,37,-9999,-9999.0,North,11.5,-,N/A,,Unknown,360,2014-01-14 12:08:00
6:28 AM,44.1,19.0,37,-9999,-9999.0,North,10.4,-,N/A,,Unknown,350,2014-01-14 12:28:00
6:48 AM,44.1,17.1,34,-9999,-9999.0,North,12.7,-,N/A,,Unknown,350,2014-01-14 12:48:00
7:08 AM,44.1,17.1,34,-9999,-9999.0,NNW,18.4,-,N/A,,Unknown,340,2014-01-14 13:08:00
7:28 AM,44.1,18.1,35,-9999,-9999.0,NNW,16.1,-,N/A,,Unknown,340,2014-01-14 13:28:00
7:48 AM,43.0,18.1,37,-9999,-9999.0,NNW,16.1,-,N/A,,Unknown,340,2014-01-14 13:48:00
8:08 AM,41.0,19.0,41,-9999,-9999.0,North,15.0,-,N/A,,Unknown,350,2014-01-14 14:08:00
8:28 AM,39.9,19.0,43,-9999,-9999.0,North,12.7,-,N/A,,Unknown,360,2014-01-14 14:28:00
8:48 AM,37.9,21.0,51,-9999,-9999.0,North,11.5,-,N/A,,Unknown,360,2014-01-14 14:48:00
9:08 AM,37.9,23.0,55,-9999,-9999.0,North,10.4,-,N/A,,Unknown,360,2014-01-14 15:08:00
9:28 AM,39.0,23.0,53,-9999,-9999.0,North,12.7,-,N/A,,Unknown,350,2014-01-14 15:28:00
9:48 AM,37.9,22.1,53,-9999,-9999.0,North,12.7,-,N/A,,Unknown,350,2014-01-14 15:48:00
10:08 AM,37.9,22.1,53,-9999,-9999.0,NNW,11.5,-,N/A,,Unknown,340,2014-01-14 16:08:00
10:28 AM,39.0,24.1,55,-9999,-9999.0,North,11.5,-,N/A,,Unknown,350,2014-01-14 16:28:00
10:48 AM,41.0,23.0,49,-9999,-9999.0,North,12.7,-,N/A,,Unknown,350,2014-01-14 16:48:00
11:08 AM,39.9,23.0,51,-9999,-9999.0,North,19.6,-,N/A,,Unknown,350,2014-01-14 17:08:00
11:28 AM,41.0,23.0,49,-9999,-9999.0,NNW,11.5,-,N/A,,Unknown,340,2014-01-14 17:28:00
11:48 AM,41.0,22.1,47,-9999,-9999.0,NNW,17.3,-,N/A,,Unknown,340,2014-01-14 17:48:00
12:08 PM,42.1,21.0,43,-9999,-9999.0,NNW,17.3,-,N/A,,Unknown,330,2014-01-14 18:08:00
12:28 PM,41.0,19.0,41,-9999,-9999.0,NNW,19.6,-,N/A,,Unknown,340,2014-01-14 18:28:00
12:48 PM,39.9,17.1,40,-9999,-9999.0,NNW,19.6,-,N/A,,Unknown,340,2014-01-14 18:48:00
1:08 PM,42.1,18.1,38,-9999,-9999.0,NNW,19.6,-,N/A,,Unknown,340,2014-01-14 19:08:00
1:28 PM,39.9,20.1,45,-9999,-9999.0,North,16.1,-,N/A,,Unknown,350,2014-01-14 19:28:00
1:48 PM,39.9,20.1,45,-9999,-9999.0,NNW,20.7,-,N/A,,Unknown,340,2014-01-14 19:48:00
2:08 PM,39.0,21.0,49,-9999,-9999.0,North,11.5,-,N/A,,Unknown,350,2014-01-14 20:08:00
2:28 PM,37.9,21.0,51,-9999,-9999.0,NNW,15.0,-,N/A,,Unknown,340,2014-01-14 20:28:00
2:48 PM,37.0,20.1,50,-9999,-9999.0,NNW,16.1,-,N/A,,Unknown,340,2014-01-14 20:48:00
3:08 PM,37.9,21.0,51,-9999,-9999.0,NNW,13.8,-,N/A,,Unknown,330,2014-01-14 21:08:00
3:28 PM,39.0,17.1,41,-9999,-9999.0,NNW,12.7,-,N/A,,Unknown,330,2014-01-14 21:28:00
3:48 PM,37.9,19.0,47,-9999,-9999.0,NW,19.6,-,N/A,,Unknown,310,2014-01-14 21:48:00
4:08 PM,37.9,19.0,47,-9999,-9999.0,NW,16.1,-,N/A,,Unknown,310,2014-01-14 22:08:00
4:28 PM,37.0,18.1,46,-9999,-9999.0,NW,16.1,-,N/A,,Unknown,310,2014-01-14 22:28:00
4:48 PM,37.0,19.0,48,-9999,-9999.0,NW,11.5,-,N/A,,Unknown,310,2014-01-14 22:48:00
5:08 PM,37.0,15.1,41,-9999,-9999.0,NNW,15.0,-,N/A,,Unknown,330,2014-01-14 23:08:00
5:28 PM,37.0,14.0,39,-9999,-9999.0,NW,15.0,-,N/A,,Unknown,320,2014-01-14 23:28:00
5:48 PM,37.9,14.0,38,-9999,-9999.0,NW,12.7,-,N/A,,Unknown,320,2014-01-14 23:48:00
6:08 PM,37.0,14.0,39,-9999,-9999.0,NW,13.8,-,N/A,,Unknown,310,2014-01-15 00:08:00
6:28 PM,37.0,13.1,37,-9999,-9999.0,NW,12.7,-,N/A,,Unknown,310,2014-01-15 00:28:00
6:48 PM,37.0,15.1,41,-9999,-9999.0,WNW,15.0,-,N/A,,Unknown,290,2014-01-15 00:48:00
7:08 PM,37.0,14.0,39,-9999,-9999.0,NW,15.0,-,N/A,,Unknown,310,2014-01-15 01:08:00
7:28 PM,37.0,14.0,39,-9999,-9999.0,NW,15.0,-,N/A,,Unknown,310,2014-01-15 01:28:00
7:48 PM,36.0,13.1,39,-9999,-9999.0,WNW,17.3,-,N/A,,Unknown,300,2014-01-15 01:48:00
8:08 PM,36.0,14.0,41,-9999,-9999.0,WNW,15.0,-,N/A,,Unknown,300,2014-01-15 02:08:00
8:28 PM,36.0,14.0,41,-9999,-9999.0,WNW,13.8,-,N/A,,Unknown,300,2014-01-15 02:28:00
8:48 PM,35.1,15.1,44,-9999,-9999.0,WNW,12.7,-,N/A,,Unknown,300,2014-01-15 02:48:00
9:08 PM,34.0,15.1,46,-9999,-9999.0,WNW,10.4,-,N/A,,Unknown,300,2014-01-15 03:08:00
9:28 PM,33.1,14.0,46,-9999,-9999.0,WNW,10.4,-,N/A,,Unknown,300,2014-01-15 03:28:00
9:48 PM,33.1,14.0,46,-9999,-9999.0,WNW,9.2,-,N/A,,Unknown,300,2014-01-15 03:48:00
10:08 PM,32.0,14.0,48,-9999,-9999.0,WNW,9.2,-,N/A,,Unknown,290,2014-01-15 04:08:00
10:28 PM,30.9,13.1,48,-9999,-9999.0,WNW,11.5,-,N/A,,Unknown,290,2014-01-15 04:28:00
10:48 PM,30.9,14.0,50,-9999,-9999.0,WNW,12.7,-,N/A,,Unknown,290,2014-01-15 04:48:00
11:08 PM,30.0,14.0,51,-9999,-9999.0,WNW,11.5,-,N/A,,Unknown,290,2014-01-15 05:08:00
11:28 PM,30.0,14.0,51,-9999,-9999.0,WNW,10.4,-,N/A,,Unknown,290,2014-01-15 05:28:00
11:48 PM,30.0,14.0,51,-9999,-9999.0,West,11.5,-,N/A,,Unknown,280,2014-01-15 05:48:00